Time;durP1;ratioP1;P1;durP2;ratioP2;P2;SDS_P1;SDS_P2;PMS_P1;PMS_P2;Temp;Humidity;BMP_temperature;BMP_pressure;BME280_temperature;BME280_humidity;BME280_pressure;Samples;Min_cycle;Max_cycle;Signal;HPM_P1;HPM_P2
2023/12/18 06:40:19;;;;;;;;;;;;;;;6.25;74.63;98855.88;4246515;27;10171;-72
2023/12/18 06:42:20;;;;;;;;;;;;;;;6.48;74.08;98849.69;4247356;27;5590;-74
2023/12/18 06:44:23;;;;;;;;;;;;;;;6.74;73.71;98854.75;4248168;27;5586;-73
2023/12/18 06:46:26;;;;;;;;;;;;;;;6.89;72.96;98853.53;4246181;27;5688;-75
2023/12/18 06:48:29;;;;;;;;;;;;;;;7.04;72.71;98846.25;4234246;27;5759;-75
2023/12/18 06:50:32;;;;;;;;;;;;;;;7.15;72.47;98851.50;4225539;27;5803;-75
2023/12/18 06:52:35;;;;;;;;;;;;;;;7.26;72.15;98854.13;4245993;27;5708;-74
2023/12/18 06:54:36;;;;;;;;;;;;;;;7.34;71.51;98858.75;4247624;27;5648;-75
2023/12/18 06:56:41;;;;;;;;;;;;;;;7.39;71.14;98857.44;4247903;27;5589;-75
2023/12/18 06:58:44;;;;;;;;;;;;;;;7.42;71.14;98865.09;4248287;27;5594;-75
2023/12/18 07:00:47;;;;;;;;;;;;;;;7.49;70.75;98868.91;4247002;27;5589;-77
2023/12/18 07:02:50;;;;;;;;;;;;;;;7.51;70.70;98861.72;4248548;27;5782;-75
2023/12/18 07:04:53;;;;;;;;;;;;;;;7.57;70.33;98865.66;4244678;27;5913;-72
2023/12/18 07:06:56;;;;;;;;;;;;;;;7.62;70.13;98866.13;4232408;27;5764;-75
2023/12/18 07:08:59;;;;;;;;;;;;;;;7.61;69.51;98868.88;4245534;27;5731;-73
2023/12/18 07:11:03;;;;;;;;;;;;;;;7.61;69.86;98871.53;4247243;27;6413;-73
2023/12/18 07:13:07;;;;;;;;;;;;;;;7.67;69.84;98878.91;4243813;27;5625;-72
2023/12/18 07:15:10;;;;;;;;;;;;;;;7.74;69.66;98880.09;4236903;27;5760;-73
2023/12/18 07:17:13;;;;;;;;;;;;;;;7.77;69.34;98875.41;4233581;27;5678;-73
2023/12/18 07:19:17;;;;;;;;;;;;;;;7.77;69.20;98880.66;4230660;28;5665;-73
2023/12/18 07:21:20;;;;;;;;;;;;;;;7.79;69.17;98870.00;4231330;27;5794;-72
2023/12/18 07:23:22;;;;;;;;;;;;;;;7.83;68.89;98874.91;4247807;27;5664;-73
2023/12/18 07:25:25;;;;;;;;;;;;;;;7.84;68.66;98871.31;4242106;27;5629;-73
2023/12/18 07:27:28;;;;;;;;;;;;;;;7.83;68.62;98872.28;4230614;28;5609;-73
2023/12/18 07:29:31;;;;;;;;;;;;;;;7.83;68.88;98874.09;4242127;27;5601;-71
2023/12/18 07:31:34;;;;;;;;;;;;;;;7.81;68.61;98876.84;4245882;27;5839;-73
2023/12/18 07:33:37;;;;;;;;;;;;;;;7.80;68.49;98871.69;4247431;27;6663;-73
2023/12/18 07:35:40;;;;;;;;;;;;;;;7.80;68.28;98871.69;4246522;27;5647;-73
2023/12/18 07:37:43;;;;;;;;;;;;;;;7.80;68.26;98872.50;4246856;27;5626;-73
2023/12/18 07:39:46;;;;;;;;;;;;;;;7.81;68.20;98868.06;4239313;27;5586;-73
2023/12/18 07:41:49;;;;;;;;;;;;;;;7.81;67.97;98873.34;4219456;27;5091;-73
2023/12/18 07:43:52;;;;;;;;;;;;;;;7.82;67.99;98870.63;4219768;28;5608;-73
2023/12/18 07:45:57;;;;;;;;;;;;;;;7.83;67.88;98876.72;4230454;28;5659;-73
2023/12/18 07:48:00;;;;;;;;;;;;;;;7.85;67.98;98882.69;4235034;28;5832;-73
2023/12/18 07:50:02;;;;;;;;;;;;;;;7.86;67.75;98879.94;4229405;27;5753;-73
2023/12/18 07:52:05;;;;;;;;;;;;;;;7.86;67.50;98877.28;4228450;27;5612;-73
2023/12/18 07:54:08;;;;;;;;;;;;;;;7.83;67.56;98867.03;4231201;28;5594;-73
2023/12/18 07:56:11;;;;;;;;;;;;;;;7.86;67.56;98877.28;4227281;28;5817;-74
2023/12/18 07:58:15;;;;;;;;;;;;;;;7.88;67.39;98882.44;4232858;28;5621;-74
2023/12/18 08:00:19;;;;;;;;;;;;;;;7.89;67.27;98876.19;4233042;27;5722;-73
2023/12/18 08:02:23;;;;;;;;;;;;;;;7.94;67.07;98874.03;4233450;28;5659;-73
2023/12/18 08:04:25;;;;;;;;;;;;;;;7.95;66.91;98872.25;4229168;28;6425;-73
2023/12/18 08:06:28;;;;;;;;;;;;;;;7.97;67.00;98881.69;4234335;28;6284;-72
2023/12/18 08:08:31;;;;;;;;;;;;;;;7.95;67.08;98870.44;4223292;28;5792;-73
2023/12/18 08:10:34;;;;;;;;;;;;;;;7.96;66.61;98872.13;4215399;28;5826;-73
2023/12/18 08:12:38;;;;;;;;;;;;;;;7.97;66.50;98875.59;4223363;28;5828;-72
2023/12/18 08:14:43;;;;;;;;;;;;;;;7.99;66.58;98871.84;4234613;28;5758;-72
2023/12/18 08:16:45;;;;;;;;;;;;;;;8.01;66.77;98869.09;4228985;28;5620;-73
2023/12/18 08:18:49;;;;;;;;;;;;;;;8.05;66.70;98873.16;4225830;28;5633;-73
2023/12/18 08:20:52;;;;;;;;;;;;;;;8.08;66.37;98875.53;4232672;28;5672;-73
2023/12/18 08:22:55;;;;;;;;;;;;;;;8.05;66.46;98876.63;4235623;28;5674;-73
2023/12/18 08:24:58;;;;;;;;;;;;;;;8.07;66.31;98874.69;4235296;28;6393;-73
2023/12/18 08:27:02;;;;;;;;;;;;;;;8.07;66.33;98869.44;4232384;28;6319;-73
2023/12/18 08:29:05;;;;;;;;;;;;;;;8.08;65.76;98878.16;4231837;28;6291;-73
2023/12/18 08:31:12;;;;;;;;;;;;;;;8.06;66.08;98882.72;4231026;28;5703;-73
2023/12/18 08:33:15;;;;;;;;;;;;;;;8.04;65.54;98880.22;4200648;28;5635;-73
2023/12/18 08:35:20;;;;;;;;;;;;;;;8.00;65.75;98883.22;4234918;28;5609;-74
2023/12/18 08:37:23;;;;;;;;;;;;;;;8.00;65.65;98873.53;4233680;28;5679;-73
2023/12/18 08:39:25;;;;;;;;;;;;;;;8.02;65.63;98878.66;4234625;28;5729;-73
2023/12/18 08:41:27;;;;;;;;;;;;;;;8.02;65.44;98882.13;4234864;28;6187;-74
2023/12/18 08:43:31;;;;;;;;;;;;;;;8.02;65.78;98871.59;4226222;28;5715;-74
2023/12/18 08:45:33;;;;;;;;;;;;;;;8.03;65.63;98869.78;4217651;28;5629;-73
2023/12/18 08:47:35;;;;;;;;;;;;;;;8.06;65.70;98867.75;4221332;28;5643;-73
2023/12/18 08:49:38;;;;;;;;;;;;;;;8.09;65.39;98871.94;4231087;27;5729;-72
2023/12/18 08:51:44;;;;;;;;;;;;;;;8.11;65.51;98875.28;4233938;28;5689;-73
2023/12/18 08:53:46;;;;;;;;;;;;;;;8.13;65.25;98874.19;4226655;28;5695;-73
2023/12/18 08:55:49;;;;;;;;;;;;;;;8.14;65.26;98869.75;4217450;28;5080;-73
2023/12/18 08:57:52;;;;;;;;;;;;;;;8.17;65.09;98882.69;4225746;27;8468;-73
2023/12/18 08:59:56;;;;;;;;;;;;;;;8.16;64.89;98881.84;4234512;28;5071;-74
2023/12/18 09:01:59;;;;;;;;;;;;;;;8.14;64.84;98881.13;4226862;28;7715;-73
2023/12/18 09:04:03;;;;;;;;;;;;;;;8.11;64.68;98880.53;4235120;28;6349;-73
2023/12/18 09:06:06;;;;;;;;;;;;;;;8.08;64.69;98876.38;4226741;27;6340;-73
2023/12/18 09:08:13;;;;;;;;;;;;;;;8.13;64.77;98870.72;4233112;28;5598;-73
2023/12/18 09:10:17;;;;;;;;;;;;;;;8.14;64.63;98873.22;4217847;28;5601;-73
2023/12/18 09:12:20;;;;;;;;;;;;;;;8.19;64.59;98872.84;4224311;28;5789;-73
2023/12/18 09:14:23;;;;;;;;;;;;;;;8.18;64.57;98866.75;4227380;28;5810;-73
2023/12/18 09:16:26;;;;;;;;;;;;;;;8.16;64.35;98866.03;4232852;28;5613;-73
2023/12/18 09:18:29;;;;;;;;;;;;;;;8.14;64.27;98865.31;4226563;28;5818;-73
2023/12/18 09:20:33;;;;;;;;;;;;;;;8.16;64.54;98866.03;4233681;27;5591;-73
2023/12/18 09:22:35;;;;;;;;;;;;;;;8.16;64.45;98858.13;4220915;28;5758;-73
2023/12/18 09:24:40;;;;;;;;;;;;;;;8.20;64.40;98858.72;4234233;28;5579;-74
2023/12/18 09:26:42;;;;;;;;;;;;;;;8.23;64.19;98863.72;4232165;28;6073;-73
2023/12/18 09:28:45;;;;;;;;;;;;;;;8.25;64.31;98861.78;4228686;28;5831;-73
2023/12/18 09:30:48;;;;;;;;;;;;;;;8.26;64.20;98862.63;4229224;28;5796;-73
2023/12/18 09:32:51;;;;;;;;;;;;;;;8.26;63.94;98862.63;4231329;28;5726;-73
2023/12/18 09:34:54;;;;;;;;;;;;;;;8.25;64.18;98859.16;4233708;28;6192;-74
2023/12/18 09:36:58;;;;;;;;;;;;;;;8.25;63.87;98856.50;4226526;28;5872;-73
2023/12/18 09:39:01;;;;;;;;;;;;;;;8.26;63.94;98862.63;4216884;28;5613;-73
2023/12/18 09:41:05;;;;;;;;;;;;;;;8.26;64.05;98852.91;4232316;28;5607;-74
2023/12/18 09:43:09;;;;;;;;;;;;;;;8.26;64.01;98852.91;4232904;27;5609;-73
2023/12/18 09:45:13;;;;;;;;;;;;;;;8.30;63.73;98853.50;4233515;28;5725;-73
2023/12/18 09:47:17;;;;;;;;;;;;;;;8.30;64.11;98848.25;4233668;28;5798;-74
2023/12/18 09:49:20;;;;;;;;;;;;;;;8.32;63.82;98847.13;4230066;28;5605;-74
2023/12/18 09:51:24;;;;;;;;;;;;;;;8.33;63.81;98842.69;4230760;27;6515;-72
2023/12/18 09:53:28;;;;;;;;;;;;;;;8.33;63.86;98848.81;4230974;28;5116;-73
2023/12/18 09:55:32;;;;;;;;;;;;;;;8.34;63.76;98839.09;4231876;27;7700;-73
2023/12/18 09:57:38;;;;;;;;;;;;;;;8.33;63.74;98846.16;4216664;28;5670;-73
2023/12/18 09:59:41;;;;;;;;;;;;;;;8.33;63.82;98847.97;4225210;28;5590;-72
2023/12/18 10:01:44;;;;;;;;;;;;;;;8.34;63.68;98852.28;4226494;28;5600;-72
2023/12/18 10:03:47;;;;;;;;;;;;;;;8.33;63.67;98840.06;4230361;28;5905;-72
2023/12/18 10:05:50;;;;;;;;;;;;;;;8.33;63.52;98847.97;4218040;28;5604;-73
2023/12/18 10:07:54;;;;;;;;;;;;;;;8.31;63.64;98834.09;4222392;28;5664;-73
2023/12/18 10:09:57;;;;;;;;;;;;;;;8.30;63.32;98828.00;4226522;28;5701;-72
2023/12/18 10:12:00;;;;;;;;;;;;;;;8.29;63.25;98830.75;4226972;28;5685;-73
2023/12/18 10:14:04;;;;;;;;;;;;;;;8.30;63.55;98833.25;4224237;28;5629;-73
2023/12/18 10:16:08;;;;;;;;;;;;;;;8.33;63.65;98826.91;4233057;28;5768;-73
2023/12/18 10:18:11;;;;;;;;;;;;;;;8.36;63.41;98826.66;4225737;28;5641;-73
2023/12/18 10:20:18;;;;;;;;;;;;;;;8.39;63.37;98818.50;4218813;28;5616;-73
2023/12/18 10:22:21;;;;;;;;;;;;;;;8.39;63.49;98816.72;4228310;28;5602;-73
2023/12/18 10:24:25;;;;;;;;;;;;;;;8.41;63.42;98816.56;4233427;28;5815;-73
2023/12/18 10:26:28;;;;;;;;;;;;;;;8.42;63.52;98819.06;4233316;28;5659;-72
2023/12/18 10:28:31;;;;;;;;;;;;;;;8.43;63.51;98812.00;4233258;28;5692;-73
2023/12/18 10:30:36;;;;;;;;;;;;;;;8.45;63.19;98813.53;4232169;28;5602;-73
2023/12/18 10:32:41;;;;;;;;;;;;;;;8.44;63.17;98805.75;4227027;28;5698;-73
2023/12/18 10:34:45;;;;;;;;;;;;;;;8.46;62.97;98809.94;4219101;27;5655;-73
2023/12/18 10:36:48;;;;;;;;;;;;;;;8.47;63.19;98802.84;4227572;28;5602;-73
2023/12/18 10:38:52;;;;;;;;;;;;;;;8.47;63.40;98808.13;4232876;28;5887;-72
2023/12/18 10:40:56;;;;;;;;;;;;;;;8.49;62.95;98802.72;4229465;28;5680;-73
2023/12/18 10:43:17;;;;;;;;;;;;;;;8.46;63.11;98793.28;4228040;28;6287;-73
2023/12/18 10:45:21;;;;;;;;;;;;;;;8.49;62.95;98790.38;4224760;28;5701;-72
2023/12/18 10:47:25;;;;;;;;;;;;;;;8.47;63.11;98792.31;4225119;28;5608;-73
2023/12/18 10:49:31;;;;;;;;;;;;;;;8.49;63.27;98795.66;4224827;28;6366;-72
2023/12/18 10:51:36;;;;;;;;;;;;;;;8.50;62.99;98791.25;4229222;28;5640;-72
2023/12/18 10:53:40;;;;;;;;;;;;;;;8.50;63.16;98792.06;4233351;28;5772;-72
2023/12/18 10:55:43;;;;;;;;;;;;;;;8.54;63.29;98788.19;4229499;28;5655;-73
2023/12/18 10:57:49;;;;;;;;;;;;;;;8.54;63.22;98782.94;4233459;28;5781;-73
2023/12/18 10:59:52;;;;;;;;;;;;;;;8.58;63.12;98781.69;4228210;28;5625;-72
2023/12/18 11:01:57;;;;;;;;;;;;;;;8.60;63.06;98773.66;4228283;28;5756;-71
2023/12/18 11:04:01;;;;;;;;;;;;;;;8.64;62.91;98772.44;4226734;28;5669;-73
2023/12/18 11:06:06;;;;;;;;;;;;;;;8.68;63.17;98779.09;4230827;28;5602;-74
2023/12/18 11:08:12;;;;;;;;;;;;;;;8.71;62.85;98763.84;4225579;28;5539;-73
2023/12/18 11:10:15;;;;;;;;;;;;;;;8.71;62.80;98763.84;4227630;28;5722;-73
2023/12/18 11:12:21;;;;;;;;;;;;;;;8.70;62.78;98766.59;4220361;28;5693;-74
2023/12/18 11:14:38;;;;;;;;;;;;;;;8.69;63.12;98759.66;4216923;28;5691;-73
2023/12/18 11:16:53;;;;;;;;;;;;;;;8.67;63.08;98759.81;4232070;28;6507;-73
2023/12/18 11:19:04;;;;;;;;;;;;;;;8.71;63.04;98763.00;4236872;28;5722;-73
2023/12/18 11:21:25;;;;;;;;;;;;;;;8.73;62.95;98761.09;4235372;28;5655;-73
2023/12/18 11:23:37;;;;;;;;;;;;;;;8.75;62.81;98754.72;4225551;28;5744;-73
2023/12/18 11:25:44;;;;;;;;;;;;;;;8.78;62.86;98743.06;4225831;28;5658;-72
2023/12/18 11:27:52;;;;;;;;;;;;;;;8.79;62.77;98750.00;4225256;28;5734;-72
2023/12/18 11:29:56;;;;;;;;;;;;;;;8.81;62.98;98744.56;4235899;28;5908;-72
2023/12/18 11:31:58;;;;;;;;;;;;;;;8.82;63.03;98747.06;4229470;28;5737;-73
2023/12/18 11:34:03;;;;;;;;;;;;;;;8.80;62.56;98740.28;4236031;28;5598;-73
2023/12/18 11:36:06;;;;;;;;;;;;;;;8.77;63.08;98735.28;4232812;28;5696;-73
2023/12/18 11:38:14;;;;;;;;;;;;;;;8.77;62.86;98730.00;4228253;28;5657;-74
2023/12/18 11:40:50;;;;;;;;;;;;;;;8.74;62.65;98737.22;4225896;27;6555;-71
2023/12/18 11:42:52;;;;;;;;;;;;;;;8.74;62.82;98726.66;4228449;28;7743;-69
2023/12/18 11:45:03;;;;;;;;;;;;;;;8.64;62.75;98723.16;4232395;27;5833;-74
2023/12/18 11:47:07;;;;;;;;;;;;;;;8.66;63.08;98725.66;4227017;28;5730;-73
2023/12/18 11:49:13;;;;;;;;;;;;;;;8.66;62.84;98713.31;4235049;28;5725;-72
2023/12/18 11:51:17;;;;;;;;;;;;;;;8.69;63.22;98720.94;4227598;28;5849;-73
2023/12/18 11:53:32;;;;;;;;;;;;;;;8.72;62.84;98723.34;4226324;28;5662;-73
2023/12/18 11:55:42;;;;;;;;;;;;;;;8.75;62.76;98722.22;4229734;28;5659;-73
2023/12/18 11:57:51;;;;;;;;;;;;;;;8.73;62.96;98714.47;4228891;28;5715;-74
2023/12/18 11:59:57;;;;;;;;;;;;;;;8.75;63.23;98723.06;4235399;28;5644;-74
2023/12/18 12:02:00;;;;;;;;;;;;;;;8.78;63.00;98716.69;4233741;28;5655;-74
2023/12/18 12:04:05;;;;;;;;;;;;;;;8.77;62.74;98714.19;4234060;28;5875;-73
2023/12/18 12:06:10;;;;;;;;;;;;;;;8.78;62.73;98718.47;4235112;28;5750;-73
2023/12/18 12:08:12;;;;;;;;;;;;;;;8.75;63.15;98707.25;4227310;28;5656;-73
2023/12/18 12:10:15;;;;;;;;;;;;;;;8.77;63.22;98711.53;4218005;28;6434;-74
2023/12/18 12:12:18;;;;;;;;;;;;;;;8.77;62.89;98711.53;4225844;28;5842;-74
2023/12/18 12:14:21;;;;;;;;;;;;;;;8.75;63.12;98711.69;4219770;28;5692;-74
2023/12/18 12:16:25;;;;;;;;;;;;;;;8.74;62.73;98700.31;4234604;28;5685;-74
2023/12/18 12:18:30;;;;;;;;;;;;;;;8.77;63.02;98706.28;4229179;27;6312;-75
2023/12/18 12:20:34;;;;;;;;;;;;;;;8.78;63.21;98706.13;4235216;28;5643;-74
2023/12/18 12:22:38;;;;;;;;;;;;;;;8.80;63.03;98698.06;4234752;28;5714;-74
2023/12/18 12:24:42;;;;;;;;;;;;;;;8.82;63.00;98696.13;4232648;28;5667;-75
2023/12/18 12:26:47;;;;;;;;;;;;;;;8.82;63.00;98688.22;4235812;27;5643;-73
2023/12/18 12:28:49;;;;;;;;;;;;;;;8.84;62.83;98688.94;4233258;28;5643;-73
2023/12/18 12:30:52;;;;;;;;;;;;;;;8.86;62.90;98687.84;4231793;27;5751;-74
2023/12/18 12:32:57;;;;;;;;;;;;;;;8.87;62.78;98688.66;4233054;28;5784;-74
2023/12/18 12:35:00;;;;;;;;;;;;;;;8.86;63.05;98677.28;4234712;28;5653;-73
2023/12/18 12:37:04;;;;;;;;;;;;;;;8.86;62.91;98677.28;4235519;28;5718;-74
2023/12/18 12:39:09;;;;;;;;;;;;;;;8.87;63.11;98670.19;4233740;28;5698;-74
2023/12/18 12:41:11;;;;;;;;;;;;;;;8.86;63.08;98674.66;4224440;28;5730;-74
2023/12/18 12:43:16;;;;;;;;;;;;;;;8.84;62.92;98673.13;4228818;28;5582;-73
2023/12/18 12:45:18;;;;;;;;;;;;;;;8.82;62.96;98669.75;4233094;28;5626;-73
2023/12/18 12:47:22;;;;;;;;;;;;;;;8.85;62.80;98667.72;4227432;28;5738;-74
2023/12/18 12:49:24;;;;;;;;;;;;;;;8.86;62.96;98660.63;4234851;28;5647;-74
2023/12/18 12:51:27;;;;;;;;;;;;;;;8.90;62.93;98659.38;4234033;28;5694;-74
2023/12/18 12:53:32;;;;;;;;;;;;;;;8.90;63.08;98654.09;4225134;28;5732;-73
2023/12/18 12:55:37;;;;;;;;;;;;;;;8.91;62.83;98661.88;4235179;28;5775;-74
2023/12/18 12:57:41;;;;;;;;;;;;;;;8.96;62.73;98650.94;4231286;27;5628;-74
2023/12/18 12:59:51;;;;;;;;;;;;;;;8.98;62.86;98656.88;4234894;28;5656;-74
2023/12/18 13:01:55;;;;;;;;;;;;;;;8.96;62.66;98650.94;4230892;28;5609;-74
2023/12/18 13:03:58;;;;;;;;;;;;;;;8.95;62.78;98647.44;4224520;28;5676;-73
2023/12/18 13:06:01;;;;;;;;;;;;;;;8.94;62.72;98644.94;4230614;28;5598;-74
2023/12/18 13:08:04;;;;;;;;;;;;;;;8.91;62.70;98645.22;4226252;28;5624;-74
2023/12/18 13:10:10;;;;;;;;;;;;;;;8.90;62.93;98647.00;4225461;28;5708;-74
2023/12/18 13:12:15;;;;;;;;;;;;;;;8.89;62.80;98642.72;4226297;28;5612;-74
2023/12/18 13:14:18;;;;;;;;;;;;;;;8.92;62.64;98644.25;4232847;28;5601;-75
2023/12/18 13:16:21;;;;;;;;;;;;;;;8.90;62.52;98640.91;4234531;28;5618;-74
2023/12/18 13:18:23;;;;;;;;;;;;;;;8.89;62.78;98639.25;4228569;28;5722;-74
2023/12/18 13:20:26;;;;;;;;;;;;;;;8.88;62.91;98638.41;4233831;28;5692;-74
2023/12/18 13:22:30;;;;;;;;;;;;;;;8.88;62.66;98646.31;4226545;28;5598;-74
2023/12/18 13:24:34;;;;;;;;;;;;;;;8.86;62.91;98640.34;4231804;28;5749;-74
2023/12/18 13:26:37;;;;;;;;;;;;;;;8.86;62.78;98635.09;4230225;28;5599;-74
2023/12/18 13:28:41;;;;;;;;;;;;;;;8.89;62.55;98634.81;4224072;28;5672;-74
2023/12/18 13:30:44;;;;;;;;;;;;;;;8.92;62.86;98628.41;4221682;28;5719;-74
2023/12/18 13:32:48;;;;;;;;;;;;;;;8.97;62.47;98624.41;4226808;28;5606;-74
2023/12/18 13:34:51;;;;;;;;;;;;;;;8.98;62.54;98620.78;4222986;28;5934;-74
2023/12/18 13:36:55;;;;;;;;;;;;;;;9.01;62.54;98617.03;4231547;28;5723;-74
2023/12/18 13:38:58;;;;;;;;;;;;;;;8.98;62.85;98615.50;4219304;28;5700;-74
2023/12/18 13:41:01;;;;;;;;;;;;;;;8.99;62.54;98611.91;4219078;28;6296;-73
2023/12/18 13:43:04;;;;;;;;;;;;;;;9.00;62.73;98610.09;4225168;28;5800;-74
2023/12/18 13:45:10;;;;;;;;;;;;;;;9.01;62.77;98611.75;4227777;28;5902;-74
2023/12/18 13:47:14;;;;;;;;;;;;;;;9.03;62.52;98610.63;4224314;28;5613;-74
2023/12/18 13:49:16;;;;;;;;;;;;;;;9.04;62.55;98616.75;4219428;28;5708;-74
2023/12/18 13:51:19;;;;;;;;;;;;;;;9.04;62.27;98617.59;4233370;28;5712;-73
2023/12/18 13:53:21;;;;;;;;;;;;;;;9.02;62.74;98614.25;4229146;27;5820;-74
2023/12/18 13:55:24;;;;;;;;;;;;;;;9.02;62.47;98618.69;4239201;27;6311;-75
2023/12/18 13:57:27;;;;;;;;;;;;;;;9.00;62.58;98616.22;4228792;27;5633;-73
2023/12/18 13:59:45;;;;;;;;;;;;;;;8.98;62.45;98618.16;4227006;28;5796;-75
2023/12/18 14:01:49;;;;;;;;;;;;;;;8.94;62.38;98614.09;4230382;28;5820;-74
2023/12/18 14:03:52;;;;;;;;;;;;;;;8.94;62.37;98621.19;4234316;28;5763;-75
2023/12/18 14:05:56;;;;;;;;;;;;;;;8.91;62.49;98618.84;4231556;28;5849;-74
2023/12/18 14:07:59;;;;;;;;;;;;;;;8.91;62.62;98621.47;4225098;28;5758;-74
2023/12/18 14:10:02;;;;;;;;;;;;;;;8.91;62.39;98613.56;4227918;28;5160;-74
2023/12/18 14:12:06;;;;;;;;;;;;;;;8.90;62.53;98612.72;4233902;28;7260;-74
2023/12/18 14:14:08;;;;;;;;;;;;;;;8.89;62.45;98620.78;4231067;28;5606;-74
2023/12/18 14:16:10;;;;;;;;;;;;;;;8.90;62.63;98630.34;4233880;28;5746;-74
2023/12/18 14:18:16;;;;;;;;;;;;;;;8.88;62.33;98621.75;4218194;27;5695;-73
2023/12/18 14:20:22;;;;;;;;;;;;;;;8.88;62.40;98627.03;4231200;27;5638;-74
2023/12/18 14:22:25;;;;;;;;;;;;;;;8.88;62.62;98622.59;4229236;28;5708;-73
2023/12/18 14:24:28;;;;;;;;;;;;;;;8.87;62.57;98625.38;4228532;28;5770;-75
2023/12/18 14:26:31;;;;;;;;;;;;;;;8.87;62.25;98622.72;4229047;28;5731;-74
2023/12/18 14:28:34;;;;;;;;;;;;;;;8.89;62.27;98626.06;4226759;28;5602;-75
2023/12/18 14:30:37;;;;;;;;;;;;;;;8.88;62.23;98627.88;4224913;28;5655;-75
2023/12/18 14:32:41;;;;;;;;;;;;;;;8.85;62.27;98619.41;4225290;28;6318;-74
2023/12/18 14:34:45;;;;;;;;;;;;;;;8.81;62.62;98624.09;4234058;28;5659;-75
2023/12/18 14:36:47;;;;;;;;;;;;;;;8.80;62.46;98616.31;4212439;28;5692;-74
2023/12/18 14:38:51;;;;;;;;;;;;;;;8.80;62.35;98613.69;4232328;28;5639;-74
2023/12/18 14:40:54;;;;;;;;;;;;;;;8.80;62.74;98611.06;4234077;28;5605;-74
2023/12/18 14:42:57;;;;;;;;;;;;;;;8.77;62.70;98611.34;4227670;28;6463;-73
2023/12/18 14:45:01;;;;;;;;;;;;;;;8.77;62.55;98611.34;4233580;28;6346;-74
2023/12/18 14:47:04;;;;;;;;;;;;;;;8.78;62.31;98603.28;4232597;28;5853;-75
2023/12/18 14:49:07;;;;;;;;;;;;;;;8.78;62.69;98605.09;4233662;28;5852;-74
2023/12/18 14:51:11;;;;;;;;;;;;;;;8.79;62.50;98609.38;4235655;28;6271;-75
2023/12/18 14:53:15;;;;;;;;;;;;;;;8.77;62.69;98606.91;4236793;28;5617;-75
2023/12/18 14:55:18;;;;;;;;;;;;;;;8.79;62.40;98612.03;4237463;28;5726;-75
2023/12/18 14:57:21;;;;;;;;;;;;;;;8.79;62.83;98612.84;4234159;28;5609;-76
2023/12/18 14:59:24;;;;;;;;;;;;;;;8.79;62.82;98606.75;4236756;28;5721;-75
2023/12/18 15:01:27;;;;;;;;;;;;;;;8.79;62.84;98612.03;4236865;28;5670;-75
2023/12/18 15:03:29;;;;;;;;;;;;;;;8.80;62.48;98608.41;4235824;28;5794;-75
2023/12/18 15:05:32;;;;;;;;;;;;;;;8.80;62.69;98609.25;4235755;28;5617;-75
2023/12/18 15:07:37;;;;;;;;;;;;;;;8.80;62.64;98597.88;4237349;28;5602;-75
2023/12/18 15:09:40;;;;;;;;;;;;;;;8.80;62.45;98605.78;4237009;28;6322;-76
2023/12/18 15:11:42;;;;;;;;;;;;;;;8.81;62.45;98604.81;4237141;28;5674;-76
2023/12/18 15:13:45;;;;;;;;;;;;;;;8.79;62.43;98607.59;4236763;28;5602;-76
2023/12/18 15:15:48;;;;;;;;;;;;;;;8.77;62.62;98606.91;4236327;28;5692;-76
2023/12/18 15:17:50;;;;;;;;;;;;;;;8.77;62.50;98613.97;4236701;28;5610;-76
2023/12/18 15:19:53;;;;;;;;;;;;;;;8.74;62.72;98605.38;4236841;28;5694;-75
2023/12/18 15:21:56;;;;;;;;;;;;;;;8.75;62.75;98600.94;4236755;28;5602;-76
2023/12/18 15:24:00;;;;;;;;;;;;;;;8.74;62.44;98610.66;4237029;28;6350;-76
2023/12/18 15:26:11;;;;;;;;;;;;;;;8.73;62.51;98608.16;4237120;27;5801;-76
2023/12/18 15:28:13;;;;;;;;;;;;;;;8.74;62.57;98615.91;4235701;28;5590;-76
2023/12/18 15:30:16;;;;;;;;;;;;;;;8.72;62.63;98609.09;4236329;28;5618;-76
2023/12/18 15:32:18;;;;;;;;;;;;;;;8.70;62.48;98609.22;4235748;27;5598;-75
2023/12/18 15:34:22;;;;;;;;;;;;;;;8.69;62.86;98604.94;4232336;28;5597;-76
2023/12/18 15:36:24;;;;;;;;;;;;;;;8.70;62.70;98601.31;4235686;28;5684;-76
2023/12/18 15:38:27;;;;;;;;;;;;;;;8.71;62.53;98602.16;4236074;28;5071;-74
2023/12/18 15:40:32;;;;;;;;;;;;;;;8.72;62.65;98607.31;4235627;28;7705;-76
2023/12/18 15:42:36;;;;;;;;;;;;;;;8.74;62.88;98602.72;4222054;28;5755;-76
2023/12/18 15:44:40;;;;;;;;;;;;;;;8.75;62.86;98606.19;4230875;28;5597;-75
2023/12/18 15:46:43;;;;;;;;;;;;;;;8.77;62.83;98598.16;4233965;28;5663;-75
2023/12/18 15:48:46;;;;;;;;;;;;;;;8.79;62.63;98602.31;4232544;28;5692;-76
2023/12/18 15:50:49;;;;;;;;;;;;;;;8.77;62.80;98598.97;4236607;28;5081;-75
2023/12/18 15:52:52;;;;;;;;;;;;;;;8.77;63.01;98598.16;4228261;28;5807;-76
2023/12/18 15:54:56;;;;;;;;;;;;;;;8.80;62.94;98601.34;4228894;27;5624;-75
2023/12/18 15:56:59;;;;;;;;;;;;;;;8.79;62.77;98596.19;4233308;28;5637;-76
2023/12/18 15:59:02;;;;;;;;;;;;;;;8.77;62.71;98603.44;4234990;28;5632;-76
2023/12/18 16:01:05;;;;;;;;;;;;;;;8.74;62.50;98602.72;4227960;28;5621;-76
2023/12/18 16:03:08;;;;;;;;;;;;;;;8.74;62.74;98601.91;4233111;28;5590;-76
2023/12/18 16:05:11;;;;;;;;;;;;;;;8.74;62.67;98601.91;4229926;27;5649;-76
2023/12/18 16:07:14;;;;;;;;;;;;;;;8.76;62.96;98592.03;4232461;28;5657;-76
2023/12/18 16:09:18;;;;;;;;;;;;;;;8.78;62.61;98598.00;4235167;28;5651;-76
2023/12/18 16:11:21;;;;;;;;;;;;;;;8.78;62.88;98591.91;4232105;28;5606;-76
2023/12/18 16:13:24;;;;;;;;;;;;;;;8.80;62.34;98592.59;4232915;28;5668;-76
2023/12/18 16:15:27;;;;;;;;;;;;;;;8.74;62.46;98589.53;4226397;28;5793;-76
2023/12/18 16:17:30;;;;;;;;;;;;;;;8.71;62.38;98594.25;4236491;28;5619;-81
2023/12/18 16:19:33;;;;;;;;;;;;;;;8.71;62.95;98596.88;4226540;28;5814;-75
2023/12/18 16:21:36;;;;;;;;;;;;;;;8.72;62.67;98585.34;4232940;28;5750;-76
2023/12/18 16:23:38;;;;;;;;;;;;;;;8.72;62.80;98582.72;4236082;28;5594;-76
2023/12/18 16:25:41;;;;;;;;;;;;;;;8.73;62.53;98587.88;4235021;28;5103;-76
2023/12/18 16:27:44;;;;;;;;;;;;;;;8.75;62.69;98593.84;4234908;28;7690;-75
2023/12/18 16:29:53;;;;;;;;;;;;;;;8.74;62.55;98599.25;4232341;28;5663;-76
2023/12/18 16:31:56;;;;;;;;;;;;;;;8.72;62.93;98602.03;4233835;28;6295;-75
2023/12/18 16:33:59;;;;;;;;;;;;;;;8.71;62.85;98600.34;4235332;28;5676;-75
2023/12/18 16:36:02;;;;;;;;;;;;;;;8.66;62.47;98597.31;4234952;28;5593;-76
2023/12/18 16:38:05;;;;;;;;;;;;;;;8.64;62.83;98593.97;4235030;28;5650;-75
2023/12/18 16:40:11;;;;;;;;;;;;;;;8.64;62.55;98599.25;4234593;28;5832;-75
2023/12/18 16:42:15;;;;;;;;;;;;;;;8.64;62.80;98604.53;4234871;28;6020;-76
2023/12/18 16:44:18;;;;;;;;;;;;;;;8.64;62.76;98593.16;4235578;28;5745;-76
2023/12/18 16:46:22;;;;;;;;;;;;;;;8.61;62.51;98594.25;4235155;28;5602;-76
2023/12/18 16:48:27;;;;;;;;;;;;;;;8.64;62.96;98593.16;4235505;28;5651;-75
2023/12/18 16:50:33;;;;;;;;;;;;;;;8.67;62.97;98592.88;4235485;28;5606;-74
2023/12/18 16:52:36;;;;;;;;;;;;;;;8.68;62.93;98594.53;4233181;28;5804;-75
2023/12/18 16:54:38;;;;;;;;;;;;;;;8.69;62.62;98590.91;4234611;28;5606;-75
2023/12/18 16:56:41;;;;;;;;;;;;;;;8.71;62.58;98599.53;4231123;28;5139;-74
2023/12/18 16:58:44;;;;;;;;;;;;;;;8.71;62.60;98595.06;4226295;28;5687;-75
2023/12/18 17:00:46;;;;;;;;;;;;;;;8.72;62.68;98596.78;4222552;28;5590;-76
2023/12/18 17:02:51;;;;;;;;;;;;;;;8.74;62.75;98604.53;4234859;28;6400;-76
2023/12/18 17:04:53;;;;;;;;;;;;;;;8.73;62.56;98601.06;4233261;28;5594;-75
2023/12/18 17:06:57;;;;;;;;;;;;;;;8.70;62.50;98598.69;4229553;28;5833;-75
2023/12/18 17:08:58;;;;;;;;;;;;;;;8.69;62.59;98599.66;4233401;28;6405;-75
2023/12/18 17:11:01;;;;;;;;;;;;;;;8.66;62.92;98604.38;4229106;28;5617;-76
2023/12/18 17:13:05;;;;;;;;;;;;;;;8.62;62.60;98601.19;4232871;28;5637;-75
2023/12/18 17:15:09;;;;;;;;;;;;;;;8.63;62.61;98599.38;4234675;28;5652;-75
2023/12/18 17:17:11;;;;;;;;;;;;;;;8.65;62.94;98595.63;4235110;28;5992;-75
2023/12/18 17:19:16;;;;;;;;;;;;;;;8.66;62.37;98593.84;4234792;28;5597;-75
2023/12/18 17:21:19;;;;;;;;;;;;;;;8.63;62.68;98588.84;4234970;28;5617;-75
2023/12/18 17:23:22;;;;;;;;;;;;;;;8.62;62.73;98588.00;4234885;28;5578;-75
2023/12/18 17:25:25;;;;;;;;;;;;;;;8.66;62.92;98588.56;4234574;28;5681;-76
2023/12/18 17:27:27;;;;;;;;;;;;;;;8.66;62.52;98584.13;4234504;27;5781;-75
2023/12/18 17:29:30;;;;;;;;;;;;;;;8.65;62.60;98590.38;4234066;28;5655;-75
2023/12/18 17:31:33;;;;;;;;;;;;;;;8.62;62.80;98593.28;4226092;28;5823;-76
2023/12/18 17:33:37;;;;;;;;;;;;;;;8.59;62.92;98590.91;4234506;28;5593;-75
2023/12/18 17:35:41;;;;;;;;;;;;;;;8.58;62.89;98583.13;4234673;28;6569;-75
2023/12/18 17:37:43;;;;;;;;;;;;;;;8.54;62.69;98587.03;4234657;28;5659;-76
2023/12/18 17:39:47;;;;;;;;;;;;;;;8.56;62.62;98578.00;4228116;27;5673;-75
2023/12/18 17:41:51;;;;;;;;;;;;;;;8.60;62.58;98581.19;4228469;28;5816;-76